sensor_id;sensor_type;location;lat;lon;timestamp;pressure;altitude;pressure_sealevel;temperature;humidity
10796;BME280;5450;42.994;23.372;2022-09-20T00:01:58;96432.91;;;11.82;100.00
10796;BME280;5450;42.994;23.372;2022-09-20T00:04:27;96442.59;;;11.82;100.00
10796;BME280;5450;42.994;23.372;2022-09-20T00:06:54;96416.28;;;11.74;100.00
10796;BME280;5450;42.994;23.372;2022-09-20T00:09:20;96408.59;;;11.64;100.00
10796;BME280;5450;42.994;23.372;2022-09-20T00:11:47;96412.88;;;11.57;100.00
10796;BME280;5450;42.994;23.372;2022-09-20T00:14:15;96370.59;;;11.28;100.00
10796;BME280;5450;42.994;23.372;2022-09-20T00:16:42;96444.16;;;11.99;100.00
10796;BME280;5450;42.994;23.372;2022-09-20T00:19:16;96362.56;;;11.13;100.00
10796;BME280;5450;42.994;23.372;2022-09-20T00:21:45;96435.22;;;11.61;100.00
10796;BME280;5450;42.994;23.372;2022-09-20T00:24:12;96440.16;;;11.64;100.00
10796;BME280;5450;42.994;23.372;2022-09-20T00:26:42;96446.44;;;11.71;100.00
10796;BME280;5450;42.994;23.372;2022-09-20T00:29:14;96442.47;;;11.59;100.00
10796;BME280;5450;42.994;23.372;2022-09-20T00:31:41;96439.28;;;11.41;100.00
10796;BME280;5450;42.994;23.372;2022-09-20T00:34:09;96451.56;;;11.49;100.00
10796;BME280;5450;42.994;23.372;2022-09-20T00:36:55;96436.63;;;11.33;100.00
10796;BME280;5450;42.994;23.372;2022-09-20T00:39:22;96444.53;;;11.41;100.00
10796;BME280;5450;42.994;23.372;2022-09-20T00:41:49;96406.13;;;11.24;100.00
10796;BME280;5450;42.994;23.372;2022-09-20T00:44:41;96445.28;;;11.58;100.00
10796;BME280;5450;42.994;23.372;2022-09-20T00:47:21;96445.31;;;11.50;100.00
10796;BME280;5450;42.994;23.372;2022-09-20T00:50:29;96447.13;;;11.49;100.00
10796;BME280;5450;42.994;23.372;2022-09-20T00:53:03;96368.75;;;10.65;100.00
10796;BME280;5450;42.994;23.372;2022-09-20T00:55:34;96448.53;;;11.05;100.00
10796;BME280;5450;42.994;23.372;2022-09-20T00:58:04;96457.44;;;11.04;100.00
10796;BME280;5450;42.994;23.372;2022-09-20T01:00:32;96451.19;;;10.97;100.00
10796;BME280;5450;42.994;23.372;2022-09-20T01:03:02;96452.84;;;10.82;100.00
10796;BME280;5450;42.994;23.372;2022-09-20T01:05:31;96457.25;;;10.81;100.00
10796;BME280;5450;42.994;23.372;2022-09-20T01:08:01;96397.97;;;10.14;100.00
10796;BME280;5450;42.994;23.372;2022-09-20T01:10:29;96460.91;;;10.80;100.00
10796;BME280;5450;42.994;23.372;2022-09-20T01:12:57;96438.38;;;10.86;100.00
10796;BME280;5450;42.994;23.372;2022-09-20T01:15:27;96450.34;;;11.12;100.00
10796;BME280;5450;42.994;23.372;2022-09-20T01:17:57;96457.38;;;11.20;100.00
10796;BME280;5450;42.994;23.372;2022-09-20T01:20:29;96437.38;;;11.11;100.00
10796;BME280;5450;42.994;23.372;2022-09-20T01:23:11;96419.91;;;11.18;100.00
10796;BME280;5450;42.994;23.372;2022-09-20T01:26:10;96446.88;;;11.20;100.00
10796;BME280;5450;42.994;23.372;2022-09-20T01:28:45;96435.72;;;10.94;100.00
10796;BME280;5450;42.994;23.372;2022-09-20T01:31:16;96446.28;;;10.78;100.00
10796;BME280;5450;42.994;23.372;2022-09-20T01:33:51;96440.38;;;10.68;100.00
10796;BME280;5450;42.994;23.372;2022-09-20T01:36:23;96439.72;;;10.74;100.00
10796;BME280;5450;42.994;23.372;2022-09-20T01:39:03;96437.22;;;10.88;100.00
10796;BME280;5450;42.994;23.372;2022-09-20T01:41:34;96431.50;;;10.85;100.00
10796;BME280;5450;42.994;23.372;2022-09-20T01:44:10;96405.53;;;10.65;100.00
10796;BME280;5450;42.994;23.372;2022-09-20T01:46:41;96414.75;;;10.53;100.00
10796;BME280;5450;42.994;23.372;2022-09-20T01:49:18;96424.25;;;10.79;100.00
10796;BME280;5450;42.994;23.372;2022-09-20T01:55:21;96388.47;;;10.70;100.00
10796;BME280;5450;42.994;23.372;2022-09-20T02:01:30;96434.91;;;11.01;100.00
10796;BME280;5450;42.994;23.372;2022-09-20T02:04:29;96434.91;;;11.01;100.00
10796;BME280;5450;42.994;23.372;2022-09-20T02:07:25;96435.09;;;11.00;100.00
10796;BME280;5450;42.994;23.372;2022-09-20T02:10:19;96438.69;;;10.99;100.00
10796;BME280;5450;42.994;23.372;2022-09-20T02:13:00;96438.22;;;10.95;100.00
10796;BME280;5450;42.994;23.372;2022-09-20T02:15:57;96440.66;;;10.97;100.00
10796;BME280;5450;42.994;23.372;2022-09-20T02:19:01;96448.56;;;10.89;100.00
10796;BME280;5450;42.994;23.372;2022-09-20T02:22:00;96453.84;;;10.56;100.00
10796;BME280;5450;42.994;23.372;2022-09-20T02:24:40;96424.50;;;10.03;100.00
10796;BME280;5450;42.994;23.372;2022-09-20T02:27:16;96448.94;;;10.04;100.00
10796;BME280;5450;42.994;23.372;2022-09-20T02:29:59;96431.63;;;10.11;100.00
10796;BME280;5450;42.994;23.372;2022-09-20T02:32:44;96445.56;;;10.19;100.00
10796;BME280;5450;42.994;23.372;2022-09-20T02:35:28;96427.19;;;10.11;100.00
10796;BME280;5450;42.994;23.372;2022-09-20T02:41:03;96444.06;;;10.09;100.00
10796;BME280;5450;42.994;23.372;2022-09-20T02:43:39;96399.56;;;9.41;100.00
10796;BME280;5450;42.994;23.372;2022-09-20T02:46:15;96452.63;;;9.77;100.00
10796;BME280;5450;42.994;23.372;2022-09-20T02:48:48;96455.66;;;9.48;100.00
10796;BME280;5450;42.994;23.372;2022-09-20T02:51:27;96371.94;;;8.87;100.00
10796;BME280;5450;42.994;23.372;2022-09-20T02:54:03;96443.59;;;9.38;100.00
10796;BME280;5450;42.994;23.372;2022-09-20T02:56:39;96459.44;;;9.54;100.00
10796;BME280;5450;42.994;23.372;2022-09-20T02:59:18;96473.22;;;9.64;100.00
10796;BME280;5450;42.994;23.372;2022-09-20T03:01:59;96461.66;;;9.74;100.00
10796;BME280;5450;42.994;23.372;2022-09-20T03:04:38;96477.59;;;9.81;100.00
10796;BME280;5450;42.994;23.372;2022-09-20T03:07:19;96387.28;;;9.16;100.00
10796;BME280;5450;42.994;23.372;2022-09-20T03:09:55;96407.72;;;9.38;100.00
10796;BME280;5450;42.994;23.372;2022-09-20T03:16:39;96458.50;;;9.63;100.00
10796;BME280;5450;42.994;23.372;2022-09-20T03:19:37;96465.50;;;9.54;100.00
10796;BME280;5450;42.994;23.372;2022-09-20T03:22:17;96461.09;;;9.55;100.00
10796;BME280;5450;42.994;23.372;2022-09-20T03:24:59;96468.28;;;9.53;100.00
10796;BME280;5450;42.994;23.372;2022-09-20T03:27:38;96474.34;;;9.53;100.00
10796;BME280;5450;42.994;23.372;2022-09-20T03:30:36;96469.56;;;9.49;100.00
10796;BME280;5450;42.994;23.372;2022-09-20T03:33:11;96474.88;;;9.57;100.00
10796;BME280;5450;42.994;23.372;2022-09-20T03:35:52;96484.50;;;9.48;100.00
10796;BME280;5450;42.994;23.372;2022-09-20T03:38:42;96465.00;;;9.25;100.00
10796;BME280;5450;42.994;23.372;2022-09-20T03:41:23;96464.75;;;9.10;100.00
10796;BME280;5450;42.994;23.372;2022-09-20T03:44:08;96496.84;;;9.30;100.00
10796;BME280;5450;42.994;23.372;2022-09-20T03:46:43;96494.50;;;9.01;100.00
10796;BME280;5450;42.994;23.372;2022-09-20T03:49:43;96461.81;;;8.27;100.00
10796;BME280;5450;42.994;23.372;2022-09-20T03:52:27;96499.59;;;8.60;100.00
10796;BME280;5450;42.994;23.372;2022-09-20T03:58:15;96518.78;;;8.86;100.00
10796;BME280;5450;42.994;23.372;2022-09-20T04:04:06;96513.41;;;8.87;100.00
10796;BME280;5450;42.994;23.372;2022-09-20T04:06:50;96505.78;;;8.76;100.00
10796;BME280;5450;42.994;23.372;2022-09-20T04:09:49;96524.19;;;8.84;100.00
10796;BME280;5450;42.994;23.372;2022-09-20T04:16:08;96525.69;;;8.87;100.00
10796;BME280;5450;42.994;23.372;2022-09-20T04:18:45;96514.25;;;8.88;100.00
10796;BME280;5450;42.994;23.372;2022-09-20T04:21:19;96526.88;;;8.92;100.00
10796;BME280;5450;42.994;23.372;2022-09-20T04:24:16;96532.53;;;9.05;100.00
10796;BME280;5450;42.994;23.372;2022-09-20T04:30:28;96542.50;;;9.02;100.00
10796;BME280;5450;42.994;23.372;2022-09-20T04:33:02;96546.94;;;9.01;100.00
10796;BME280;5450;42.994;23.372;2022-09-20T04:35:37;96541.91;;;8.90;100.00
10796;BME280;5450;42.994;23.372;2022-09-20T04:38:26;96543.03;;;9.05;100.00
10796;BME280;5450;42.994;23.372;2022-09-20T04:41:17;96538.59;;;9.06;100.00
10796;BME280;5450;42.994;23.372;2022-09-20T04:44:14;96547.81;;;9.10;100.00
10796;BME280;5450;42.994;23.372;2022-09-20T04:50:32;96535.41;;;8.94;100.00
10796;BME280;5450;42.994;23.372;2022-09-20T04:53:39;96538.41;;;8.99;100.00
10796;BME280;5450;42.994;23.372;2022-09-20T04:56:19;96529.88;;;8.97;100.00
10796;BME280;5450;42.994;23.372;2022-09-20T04:58:51;96516.31;;;8.84;100.00
10796;BME280;5450;42.994;23.372;2022-09-20T05:01:56;96546.19;;;8.91;100.00
10796;BME280;5450;42.994;23.372;2022-09-20T05:11:26;96542.59;;;8.92;100.00
10796;BME280;5450;42.994;23.372;2022-09-20T05:14:17;96520.16;;;8.72;100.00
10796;BME280;5450;42.994;23.372;2022-09-20T05:16:59;96535.41;;;8.94;100.00
10796;BME280;5450;42.994;23.372;2022-09-20T05:19:39;96546.78;;;9.03;100.00
10796;BME280;5450;42.994;23.372;2022-09-20T05:25:25;96543.97;;;8.96;100.00
10796;BME280;5450;42.994;23.372;2022-09-20T05:28:01;96538.94;;;9.03;100.00
10796;BME280;5450;42.994;23.372;2022-09-20T05:30:37;96518.97;;;8.67;100.00
10796;BME280;5450;42.994;23.372;2022-09-20T05:33:16;96546.25;;;8.99;100.00
10796;BME280;5450;42.994;23.372;2022-09-20T05:35:54;96546.81;;;8.85;100.00
10796;BME280;5450;42.994;23.372;2022-09-20T05:38:32;96546.63;;;9.04;100.00
10796;BME280;5450;42.994;23.372;2022-09-20T05:41:09;96547.72;;;9.20;100.00
10796;BME280;5450;42.994;23.372;2022-09-20T05:43:52;96515.41;;;9.11;100.00
10796;BME280;5450;42.994;23.372;2022-09-20T05:46:33;96527.50;;;9.38;100.00
10796;BME280;5450;42.994;23.372;2022-09-20T05:49:09;96535.97;;;9.49;100.00
10796;BME280;5450;42.994;23.372;2022-09-20T05:52:05;96534.19;;;9.58;100.00
10796;BME280;5450;42.994;23.372;2022-09-20T05:55:04;96538.53;;;9.67;100.00
10796;BME280;5450;42.994;23.372;2022-09-20T05:57:49;96559.28;;;9.86;100.00
10796;BME280;5450;42.994;23.372;2022-09-20T06:00:24;96533.59;;;9.98;100.00
10796;BME280;5450;42.994;23.372;2022-09-20T06:03:04;96534.50;;;10.14;100.00
10796;BME280;5450;42.994;23.372;2022-09-20T06:05:45;96532.25;;;10.27;100.00
10796;BME280;5450;42.994;23.372;2022-09-20T06:08:36;96537.19;;;10.38;100.00
10796;BME280;5450;42.994;23.372;2022-09-20T06:14:19;96498.34;;;10.00;100.00
10796;BME280;5450;42.994;23.372;2022-09-20T06:16:53;96542.16;;;10.65;100.00
10796;BME280;5450;42.994;23.372;2022-09-20T06:19:31;96539.88;;;10.79;100.00
10796;BME280;5450;42.994;23.372;2022-09-20T06:22:04;96537.59;;;10.76;100.00
10796;BME280;5450;42.994;23.372;2022-09-20T06:24:42;96529.03;;;10.57;100.00
10796;BME280;5450;42.994;23.372;2022-09-20T06:27:17;96443.63;;;10.53;100.00
10796;BME280;5450;42.994;23.372;2022-09-20T06:29:51;96539.91;;;11.19;100.00
10796;BME280;5450;42.994;23.372;2022-09-20T06:32:23;96495.22;;;10.95;100.00
10796;BME280;5450;42.994;23.372;2022-09-20T06:34:50;96540.38;;;11.38;100.00
10796;BME280;5450;42.994;23.372;2022-09-20T06:37:38;96547.13;;;11.49;100.00
10796;BME280;5450;42.994;23.372;2022-09-20T06:40:33;96511.25;;;11.48;100.00
10796;BME280;5450;42.994;23.372;2022-09-20T06:43:20;96532.09;;;11.74;100.00
10796;BME280;5450;42.994;23.372;2022-09-20T06:45:46;96536.53;;;11.81;100.00
10796;BME280;5450;42.994;23.372;2022-09-20T06:48:15;96529.56;;;11.96;100.00
10796;BME280;5450;42.994;23.372;2022-09-20T06:50:45;96450.13;;;11.38;100.00
10796;BME280;5450;42.994;23.372;2022-09-20T06:53:17;96535.25;;;12.16;100.00
10796;BME280;5450;42.994;23.372;2022-09-20T06:55:45;96492.72;;;11.96;100.00
10796;BME280;5450;42.994;23.372;2022-09-20T06:58:12;96477.78;;;12.19;100.00
10796;BME280;5450;42.994;23.372;2022-09-20T07:00:39;96490.53;;;12.39;100.00
10796;BME280;5450;42.994;23.372;2022-09-20T07:03:07;96490.72;;;12.60;100.00
10796;BME280;5450;42.994;23.372;2022-09-20T07:05:38;96426.69;;;12.29;100.00
10796;BME280;5450;42.994;23.372;2022-09-20T07:08:05;96500.50;;;12.74;100.00
10796;BME280;5450;42.994;23.372;2022-09-20T07:10:32;96458.97;;;12.53;100.00
10796;BME280;5450;42.994;23.372;2022-09-20T07:13:00;96534.75;;;13.27;100.00
10796;BME280;5450;42.994;23.372;2022-09-20T07:15:29;96540.69;;;13.44;100.00
10796;BME280;5450;42.994;23.372;2022-09-20T07:17:56;96530.09;;;13.29;100.00
10796;BME280;5450;42.994;23.372;2022-09-20T07:20:24;96547.34;;;13.69;100.00
10796;BME280;5450;42.994;23.372;2022-09-20T07:22:53;96469.84;;;13.18;100.00
10796;BME280;5450;42.994;23.372;2022-09-20T07:25:20;96552.84;;;13.82;100.00
10796;BME280;5450;42.994;23.372;2022-09-20T07:27:49;96520.50;;;13.65;100.00
10796;BME280;5450;42.994;23.372;2022-09-20T07:30:18;96557.66;;;14.08;100.00
10796;BME280;5450;42.994;23.372;2022-09-20T07:32:46;96437.00;;;13.64;100.00
10796;BME280;5450;42.994;23.372;2022-09-20T07:35:14;96552.84;;;14.55;99.29
10796;BME280;5450;42.994;23.372;2022-09-20T07:37:43;96478.56;;;14.21;97.64
10796;BME280;5450;42.994;23.372;2022-09-20T07:40:11;96447.44;;;14.02;95.66
10796;BME280;5450;42.994;23.372;2022-09-20T07:42:39;96591.16;;;14.80;90.86
10796;BME280;5450;42.994;23.372;2022-09-20T07:45:06;96473.84;;;14.31;91.79
10796;BME280;5450;42.994;23.372;2022-09-20T07:47:34;96512.63;;;14.81;92.21
10796;BME280;5450;42.994;23.372;2022-09-20T07:50:01;96475.25;;;14.48;91.03
10796;BME280;5450;42.994;23.372;2022-09-20T07:52:28;96543.81;;;15.06;95.67
10796;BME280;5450;42.994;23.372;2022-09-20T07:54:56;96471.84;;;14.33;91.76
10796;BME280;5450;42.994;23.372;2022-09-20T07:57:24;96517.22;;;14.72;92.33
10796;BME280;5450;42.994;23.372;2022-09-20T07:59:51;96496.25;;;14.35;93.43
10796;BME280;5450;42.994;23.372;2022-09-20T08:02:18;96490.56;;;14.38;91.59
10796;BME280;5450;42.994;23.372;2022-09-20T08:04:45;96484.84;;;14.34;96.16
10796;BME280;5450;42.994;23.372;2022-09-20T08:07:15;96426.31;;;14.02;98.00
10796;BME280;5450;42.994;23.372;2022-09-20T08:09:43;96488.19;;;14.43;96.67
10796;BME280;5450;42.994;23.372;2022-09-20T08:12:10;96461.63;;;14.51;99.67
10796;BME280;5450;42.994;23.372;2022-09-20T08:14:40;96520.22;;;14.69;100.00
10796;BME280;5450;42.994;23.372;2022-09-20T08:17:09;96501.97;;;14.74;98.91
10796;BME280;5450;42.994;23.372;2022-09-20T08:19:36;96484.59;;;14.65;100.00
10796;BME280;5450;42.994;23.372;2022-09-20T08:22:05;96517.72;;;14.82;97.54
10796;BME280;5450;42.994;23.372;2022-09-20T08:24:33;96467.75;;;14.16;93.78
10796;BME280;5450;42.994;23.372;2022-09-20T08:27:01;96484.31;;;14.24;93.66
10796;BME280;5450;42.994;23.372;2022-09-20T08:29:28;96521.81;;;14.64;87.80
10796;BME280;5450;42.994;23.372;2022-09-20T08:31:57;96490.78;;;14.36;91.52
10796;BME280;5450;42.994;23.372;2022-09-20T08:34:27;96479.84;;;14.25;88.27
10796;BME280;5450;42.994;23.372;2022-09-20T08:36:54;96480.75;;;14.32;86.97
10796;BME280;5450;42.994;23.372;2022-09-20T08:39:21;96520.72;;;14.79;88.83
10796;BME280;5450;42.994;23.372;2022-09-20T08:41:52;96490.38;;;14.75;91.05
10796;BME280;5450;42.994;23.372;2022-09-20T08:44:24;96485.47;;;14.93;87.72
10796;BME280;5450;42.994;23.372;2022-09-20T08:47:03;96451.59;;;14.82;90.01
10796;BME280;5450;42.994;23.372;2022-09-20T08:49:32;96544.53;;;15.43;86.48
10796;BME280;5450;42.994;23.372;2022-09-20T08:52:01;96451.22;;;14.85;88.75
10796;BME280;5450;42.994;23.372;2022-09-20T08:54:31;96513.16;;;15.40;84.29
10796;BME280;5450;42.994;23.372;2022-09-20T08:57:01;96390.78;;;14.61;87.91
10796;BME280;5450;42.994;23.372;2022-09-20T08:59:31;96447.28;;;15.02;84.49
10796;BME280;5450;42.994;23.372;2022-09-20T09:02:01;96486.22;;;15.08;86.92
10796;BME280;5450;42.994;23.372;2022-09-20T09:04:34;96443.19;;;15.00;85.75
10796;BME280;5450;42.994;23.372;2022-09-20T09:07:03;96432.19;;;14.96;88.62
10796;BME280;5450;42.994;23.372;2022-09-20T09:09:33;96449.69;;;14.97;89.32
10796;BME280;5450;42.994;23.372;2022-09-20T09:12:02;96512.63;;;15.51;83.04
10796;BME280;5450;42.994;23.372;2022-09-20T09:14:31;96426.59;;;15.12;84.16
10796;BME280;5450;42.994;23.372;2022-09-20T09:17:16;96413.50;;;15.04;82.15
10796;BME280;5450;42.994;23.372;2022-09-20T09:19:46;96362.06;;;14.86;84.38
10796;BME280;5450;42.994;23.372;2022-09-20T09:22:22;96500.25;;;15.58;79.65
10796;BME280;5450;42.994;23.372;2022-09-20T09:25:27;96503.53;;;15.60;80.41
10796;BME280;5450;42.994;23.372;2022-09-20T09:28:01;96467.91;;;15.35;83.27
10796;BME280;5450;42.994;23.372;2022-09-20T09:30:32;96430.16;;;14.98;86.41
10796;BME280;5450;42.994;23.372;2022-09-20T09:33:21;96481.75;;;15.37;84.29
10796;BME280;5450;42.994;23.372;2022-09-20T09:36:03;96359.16;;;14.74;87.59
10796;BME280;5450;42.994;23.372;2022-09-20T09:38:35;96470.31;;;15.57;86.79
10796;BME280;5450;42.994;23.372;2022-09-20T09:41:04;96443.19;;;15.55;85.82
10796;BME280;5450;42.994;23.372;2022-09-20T09:44:28;96375.06;;;15.08;84.60
10796;BME280;5450;42.994;23.372;2022-09-20T09:47:02;96313.34;;;15.01;82.43
10796;BME280;5450;42.994;23.372;2022-09-20T09:49:32;96340.94;;;14.92;83.26
10796;BME280;5450;42.994;23.372;2022-09-20T09:52:04;96366.88;;;14.76;82.63
10796;BME280;5450;42.994;23.372;2022-09-20T09:54:34;96368.19;;;14.86;81.09
10796;BME280;5450;42.994;23.372;2022-09-20T10:00:30;96441.09;;;15.44;82.68
10796;BME280;5450;42.994;23.372;2022-09-20T10:03:11;96464.00;;;15.58;79.90
10796;BME280;5450;42.994;23.372;2022-09-20T10:08:32;96381.06;;;15.24;78.88
10796;BME280;5450;42.994;23.372;2022-09-20T10:08:53;96462.28;;;15.72;78.50
10796;BME280;5450;42.994;23.372;2022-09-20T10:11:53;96429.78;;;15.57;75.02
10796;BME280;5450;42.994;23.372;2022-09-20T10:14:41;96478.38;;;15.77;77.90
10796;BME280;5450;42.994;23.372;2022-09-20T10:17:28;96465.41;;;15.88;79.12
10796;BME280;5450;42.994;23.372;2022-09-20T10:27:50;96429.38;;;16.67;75.51
10796;BME280;5450;42.994;23.372;2022-09-20T10:31:19;96437.16;;;16.62;71.34
10796;BME280;5450;42.994;23.372;2022-09-20T10:40:58;96418.34;;;16.57;73.54
10796;BME280;5450;42.994;23.372;2022-09-20T10:44:05;96370.50;;;16.18;75.78
10796;BME280;5450;42.994;23.372;2022-09-20T10:47:01;96411.16;;;16.45;80.03
10796;BME280;5450;42.994;23.372;2022-09-20T10:55:40;96340.88;;;15.95;78.35
10796;BME280;5450;42.994;23.372;2022-09-20T10:58:47;96305.31;;;15.57;85.63
10796;BME280;5450;42.994;23.372;2022-09-20T11:01:59;96417.66;;;16.29;75.26
10796;BME280;5450;42.994;23.372;2022-09-20T11:05:22;96396.25;;;16.37;80.30
10796;BME280;5450;42.994;23.372;2022-09-20T11:11:12;96388.91;;;16.33;76.97
10796;BME280;5450;42.994;23.372;2022-09-20T11:13:52;96336.19;;;15.97;73.86
10796;BME280;5450;42.994;23.372;2022-09-20T11:30:50;96351.16;;;15.64;80.31
10796;BME280;5450;42.994;23.372;2022-09-20T11:33:24;96403.88;;;15.93;80.54
10796;BME280;5450;42.994;23.372;2022-09-20T11:35:58;96316.72;;;15.64;81.14
10796;BME280;5450;42.994;23.372;2022-09-20T11:38:34;96392.84;;;15.96;78.00
10796;BME280;5450;42.994;23.372;2022-09-20T11:41:17;96350.47;;;15.96;79.78
10796;BME280;5450;42.994;23.372;2022-09-20T11:43:51;96371.72;;;16.22;78.60
10796;BME280;5450;42.994;23.372;2022-09-20T11:46:25;96389.25;;;16.10;79.82
10796;BME280;5450;42.994;23.372;2022-09-20T11:49:00;96397.44;;;16.15;81.00
10796;BME280;5450;42.994;23.372;2022-09-20T11:51:47;96272.06;;;15.48;80.48
10796;BME280;5450;42.994;23.372;2022-09-20T11:54:33;96390.41;;;15.94;84.37
10796;BME280;5450;42.994;23.372;2022-09-20T11:57:13;96270.28;;;15.20;83.08
10796;BME280;5450;42.994;23.372;2022-09-20T11:59:50;96312.38;;;15.43;84.36
10796;BME280;5450;42.994;23.372;2022-09-20T12:02:22;96309.03;;;15.35;86.36
10796;BME280;5450;42.994;23.372;2022-09-20T12:04:49;96362.19;;;15.67;89.56
10796;BME280;5450;42.994;23.372;2022-09-20T12:07:22;96392.34;;;15.73;86.47
10796;BME280;5450;42.994;23.372;2022-09-20T12:09:54;96337.84;;;15.51;84.42
10796;BME280;5450;42.994;23.372;2022-09-20T12:12:44;96377.28;;;15.73;87.42
10796;BME280;5450;42.994;23.372;2022-09-20T12:15:23;96267.38;;;15.09;86.46
10796;BME280;5450;42.994;23.372;2022-09-20T12:18:13;96388.16;;;15.85;84.34
10796;BME280;5450;42.994;23.372;2022-09-20T12:21:13;96279.25;;;15.19;85.96
10796;BME280;5450;42.994;23.372;2022-09-20T12:24:18;96294.69;;;15.16;86.34
10796;BME280;5450;42.994;23.372;2022-09-20T12:26:51;96405.16;;;15.63;85.02
10796;BME280;5450;42.994;23.372;2022-09-20T12:32:49;96310.63;;;15.29;88.43
10796;BME280;5450;42.994;23.372;2022-09-20T12:38:57;96326.25;;;15.52;88.27
10796;BME280;5450;42.994;23.372;2022-09-20T12:41:50;96351.81;;;15.72;85.75
10796;BME280;5450;42.994;23.372;2022-09-20T12:44:35;96375.53;;;15.87;89.70
10796;BME280;5450;42.994;23.372;2022-09-20T12:47:19;96402.84;;;15.94;93.70
10796;BME280;5450;42.994;23.372;2022-09-20T12:49:51;96339.44;;;15.86;95.69
10796;BME280;5450;42.994;23.372;2022-09-20T12:52:50;96292.84;;;15.51;95.51
10796;BME280;5450;42.994;23.372;2022-09-20T12:55:41;96283.09;;;15.17;91.95
10796;BME280;5450;42.994;23.372;2022-09-20T12:58:25;96264.91;;;15.07;84.97
10796;BME280;5450;42.994;23.372;2022-09-20T13:07:39;96352.50;;;15.94;89.62
10796;BME280;5450;42.994;23.372;2022-09-20T13:10:33;96376.56;;;15.99;91.55
10796;BME280;5450;42.994;23.372;2022-09-20T13:13:30;96375.75;;;16.05;91.99
10796;BME280;5450;42.994;23.372;2022-09-20T13:16:19;96308.88;;;15.90;93.58
10796;BME280;5450;42.994;23.372;2022-09-20T13:18:49;96384.38;;;16.20;94.53
10796;BME280;5450;42.994;23.372;2022-09-20T13:21:32;96381.09;;;16.18;95.31
10796;BME280;5450;42.994;23.372;2022-09-20T13:24:02;96335.41;;;16.03;94.93
10796;BME280;5450;42.994;23.372;2022-09-20T13:26:41;96374.38;;;16.22;94.30
10796;BME280;5450;42.994;23.372;2022-09-20T13:29:43;96312.75;;;16.01;89.77
10796;BME280;5450;42.994;23.372;2022-09-20T13:32:26;96314.59;;;15.93;93.16
10796;BME280;5450;42.994;23.372;2022-09-20T13:35:13;96263.56;;;15.59;90.84
10796;BME280;5450;42.994;23.372;2022-09-20T13:38:07;96249.28;;;15.60;89.15
10796;BME280;5450;42.994;23.372;2022-09-20T13:44:32;96249.09;;;15.55;89.06
10796;BME280;5450;42.994;23.372;2022-09-20T13:57:55;96336.03;;;16.18;81.71
10796;BME280;5450;42.994;23.372;2022-09-20T14:00:28;96379.44;;;16.04;79.38
10796;BME280;5450;42.994;23.372;2022-09-20T14:02:58;96376.19;;;16.02;77.70
10796;BME280;5450;42.994;23.372;2022-09-20T14:05:47;96359.28;;;16.10;79.95
10796;BME280;5450;42.994;23.372;2022-09-20T14:29:53;96348.75;;;15.69;89.93
10796;BME280;5450;42.994;23.372;2022-09-20T14:33:04;96353.25;;;15.75;92.33
10796;BME280;5450;42.994;23.372;2022-09-20T14:36:23;96350.00;;;15.79;93.39
10796;BME280;5450;42.994;23.372;2022-09-20T14:39:21;96254.19;;;15.15;91.58
10796;BME280;5450;42.994;23.372;2022-09-20T14:55:31;96340.94;;;15.54;93.95
10796;BME280;5450;42.994;23.372;2022-09-20T15:05:19;96368.63;;;15.52;92.20
10796;BME280;5450;42.994;23.372;2022-09-20T15:07:56;96366.22;;;15.57;92.71
10796;BME280;5450;42.994;23.372;2022-09-20T15:10:28;96349.91;;;15.60;92.71
10796;BME280;5450;42.994;23.372;2022-09-20T15:13:01;96357.47;;;15.63;93.06
10796;BME280;5450;42.994;23.372;2022-09-20T15:15:47;96287.41;;;15.25;94.11
10796;BME280;5450;42.994;23.372;2022-09-20T15:18:36;96375.19;;;15.62;100.00
10796;BME280;5450;42.994;23.372;2022-09-20T15:21:17;96360.69;;;15.52;100.00
10796;BME280;5450;42.994;23.372;2022-09-20T15:23:46;96342.69;;;15.41;100.00
10796;BME280;5450;42.994;23.372;2022-09-20T15:26:26;96362.47;;;15.45;100.00
10796;BME280;5450;42.994;23.372;2022-09-20T15:28:58;96335.38;;;15.08;100.00
10796;BME280;5450;42.994;23.372;2022-09-20T15:31:26;96337.41;;;15.06;100.00
10796;BME280;5450;42.994;23.372;2022-09-20T15:33:55;96322.34;;;15.07;100.00
10796;BME280;5450;42.994;23.372;2022-09-20T15:36:29;96322.97;;;14.81;100.00
10796;BME280;5450;42.994;23.372;2022-09-20T15:39:03;96375.41;;;15.27;100.00
10796;BME280;5450;42.994;23.372;2022-09-20T15:44:36;96395.25;;;15.16;99.49
10796;BME280;5450;42.994;23.372;2022-09-20T15:47:28;96381.91;;;15.24;100.00
10796;BME280;5450;42.994;23.372;2022-09-20T15:51:03;96251.88;;;14.37;100.00
10796;BME280;5450;42.994;23.372;2022-09-20T15:53:58;96355.56;;;15.16;100.00
10796;BME280;5450;42.994;23.372;2022-09-20T16:00:00;96343.47;;;15.00;100.00
10796;BME280;5450;42.994;23.372;2022-09-20T16:03:58;96375.34;;;15.20;100.00
10796;BME280;5450;42.994;23.372;2022-09-20T16:40:52;96411.50;;;13.28;100.00
10796;BME280;5450;42.994;23.372;2022-09-20T16:43:29;96415.50;;;13.09;100.00
10796;BME280;5450;42.994;23.372;2022-09-20T16:46:04;96396.00;;;12.95;100.00
10796;BME280;5450;42.994;23.372;2022-09-20T16:49:23;96320.22;;;12.23;100.00
10796;BME280;5450;42.994;23.372;2022-09-20T16:52:19;96377.91;;;12.55;100.00
10796;BME280;5450;42.994;23.372;2022-09-20T16:54:54;96357.66;;;12.33;100.00
10796;BME280;5450;42.994;23.372;2022-09-20T16:58:16;96304.34;;;11.55;100.00
10796;BME280;5450;42.994;23.372;2022-09-20T17:01:22;96453.41;;;11.95;100.00
10796;BME280;5450;42.994;23.372;2022-09-20T17:03:53;96421.53;;;11.82;100.00
10796;BME280;5450;42.994;23.372;2022-09-20T17:09:42;96419.88;;;12.11;100.00
10796;BME280;5450;42.994;23.372;2022-09-20T17:12:10;96434.91;;;12.03;100.00
10796;BME280;5450;42.994;23.372;2022-09-20T17:14:57;96420.91;;;12.10;100.00
10796;BME280;5450;42.994;23.372;2022-09-20T17:17:51;96420.66;;;12.20;100.00
10796;BME280;5450;42.994;23.372;2022-09-20T17:20:18;96441.75;;;11.81;100.00